Time;durP1;ratioP1;P1;durP2;ratioP2;P2;SDS_P1;SDS_P2;PMS_P1;PMS_P2;Temp;Humidity;BMP_temperature;BMP_pressure;BME280_temperature;BME280_humidity;BME280_pressure;Samples;Min_cycle;Max_cycle;Signal;HPM_P1;HPM_P2
2022/01/17 00:00:00;;;;;;;105.68;36.35;;;;;;;;;;6138533;23;20083;-74
2022/01/17 00:02:25;;;;;;;118.90;37.70;;;;;;;;;;6188008;23;20005;-74
2022/01/17 00:04:51;;;;;;;106.60;35.63;;;;;;;;;;6214525;23;20015;-75
2022/01/17 00:07:16;;;;;;;120.70;38.20;;;;;;;;;;6163262;23;20058;-74
2022/01/17 00:09:42;;;;;;;109.90;35.35;;;;;;;;;;6187653;23;20009;-75
2022/01/17 00:12:08;;;;;;;102.50;33.20;;;;;;;;;;6187753;23;20087;-74
2022/01/17 00:14:39;;;;;;;97.07;32.75;;;;;;;;;;6187641;23;20321;-76
2022/01/17 00:19:41;;;;;;;90.65;31.75;;;;;;;;;;6190386;23;20007;-74
2022/01/17 00:22:06;;;;;;;93.10;31.88;;;;;;;;;;6187874;23;20443;-74
2022/01/17 00:24:32;;;;;;;93.32;30.58;;;;;;;;;;6187789;23;19993;-74
2022/01/17 00:26:58;;;;;;;96.03;30.90;;;;;;;;;;6214995;23;20008;-75
2022/01/17 00:29:23;;;;;;;105.20;34.95;;;;;;;;;;6189204;23;20382;-74
2022/01/17 00:31:49;;;;;;;98.72;32.15;;;;;;;;;;6215198;23;20031;-74
2022/01/17 00:34:14;;;;;;;96.38;30.40;;;;;;;;;;6213919;23;20004;-73
2022/01/17 00:36:40;;;;;;;99.63;31.67;;;;;;;;;;6224086;23;20031;-75
2022/01/17 00:39:05;;;;;;;74.55;26.83;;;;;;;;;;6228697;23;20088;-76
2022/01/17 00:41:31;;;;;;;84.50;26.63;;;;;;;;;;6187584;23;20004;-75
2022/01/17 00:43:57;;;;;;;84.68;26.60;;;;;;;;;;6214002;23;20432;-75
2022/01/17 00:46:23;;;;;;;73.50;25.98;;;;;;;;;;6213955;23;20005;-75
2022/01/17 00:48:48;;;;;;;82.85;27.50;;;;;;;;;;6213931;23;20386;-75
2022/01/17 00:51:14;;;;;;;69.65;25.88;;;;;;;;;;6213547;23;20439;-73
2022/01/17 00:53:40;;;;;;;77.57;26.67;;;;;;;;;;6213838;23;20015;-75
2022/01/17 00:56:06;;;;;;;79.65;27.40;;;;;;;;;;6219910;23;20001;-76
2022/01/17 00:58:32;;;;;;;88.53;29.50;;;;;;;;;;6201199;23;20009;-76
2022/01/17 01:00:57;;;;;;;92.18;31.95;;;;;;;;;;6213990;23;20008;-77
2022/01/17 01:03:23;;;;;;;83.18;29.00;;;;;;;;;;6213861;23;20095;-74
2022/01/17 01:05:48;;;;;;;83.57;28.08;;;;;;;;;;6213866;23;20008;-75
2022/01/17 01:08:14;;;;;;;88.10;31.55;;;;;;;;;;6213796;23;20420;-74
2022/01/17 01:10:39;;;;;;;95.22;29.27;;;;;;;;;;6213755;23;20005;-73
2022/01/17 01:13:05;;;;;;;106.78;34.88;;;;;;;;;;6187846;23;20012;-73
2022/01/17 01:16:09;;;;;;;99.72;32.22;;;;;;;;;;6187993;23;20015;-75
2022/01/17 01:18:36;;;;;;;90.85;32.92;;;;;;;;;;6220210;23;20009;-73
2022/01/17 01:29:19;;;;;;;101.03;35.08;;;;;;;;;;6191956;23;20016;-73
2022/01/17 01:32:07;;;;;;;106.55;34.42;;;;;;;;;;6189483;23;20005;-73
2022/01/17 01:34:37;;;;;;;93.97;31.45;;;;;;;;;;6168428;23;20405;-74
2022/01/17 01:37:03;;;;;;;97.82;33.42;;;;;;;;;;6215737;23;20004;-75
2022/01/17 01:39:29;;;;;;;114.82;34.15;;;;;;;;;;6226017;23;20051;-74
2022/01/17 01:41:54;;;;;;;101.72;31.73;;;;;;;;;;6215649;23;20391;-74
2022/01/17 01:44:22;;;;;;;98.07;32.63;;;;;;;;;;6215522;23;20028;-73
2022/01/17 01:46:48;;;;;;;101.47;33.22;;;;;;;;;;6189498;23;20447;-74
2022/01/17 01:49:15;;;;;;;101.90;34.10;;;;;;;;;;6188866;23;20416;-74
2022/01/17 01:51:40;;;;;;;103.68;34.70;;;;;;;;;;6194268;23;20008;-73
2022/01/17 01:54:07;;;;;;;109.38;36.30;;;;;;;;;;6189277;23;20104;-74
2022/01/17 01:56:35;;;;;;;97.65;35.35;;;;;;;;;;6215569;23;20001;-74
2022/01/17 01:59:01;;;;;;;90.22;31.15;;;;;;;;;;6198981;23;20024;-74
2022/01/17 02:01:26;;;;;;;87.75;28.50;;;;;;;;;;6220422;23;20000;-73
2022/01/17 02:03:52;;;;;;;79.38;28.17;;;;;;;;;;6213706;23;20075;-75
2022/01/17 02:06:17;;;;;;;86.57;28.77;;;;;;;;;;6214579;23;19997;-74
2022/01/17 02:08:42;;;;;;;80.75;28.23;;;;;;;;;;6215316;23;20063;-74
2022/01/17 02:11:10;;;;;;;76.88;26.33;;;;;;;;;;6214022;23;20058;-74
2022/01/17 02:13:37;;;;;;;88.38;29.50;;;;;;;;;;6215520;23;20456;-74
2022/01/17 02:16:04;;;;;;;92.72;29.88;;;;;;;;;;6216059;23;20004;-74
2022/01/17 02:18:31;;;;;;;92.80;29.58;;;;;;;;;;6199379;23;20103;-74
2022/01/17 02:21:12;;;;;;;82.63;29.52;;;;;;;;;;6189345;23;20012;-73
2022/01/17 02:23:39;;;;;;;99.97;32.97;;;;;;;;;;6213978;23;20414;-74
2022/01/17 02:26:04;;;;;;;94.60;32.55;;;;;;;;;;6213993;23;20004;-74
2022/01/17 02:28:33;;;;;;;100.05;33.83;;;;;;;;;;6215438;23;20020;-74
2022/01/17 02:31:01;;;;;;;105.82;34.30;;;;;;;;;;6213826;23;20000;-74
2022/01/17 02:33:27;;;;;;;99.55;31.95;;;;;;;;;;6213372;23;20001;-75
2022/01/17 02:35:52;;;;;;;86.10;30.70;;;;;;;;;;6213922;23;20343;-73
2022/01/17 02:38:18;;;;;;;96.95;30.77;;;;;;;;;;6223061;23;20004;-74
2022/01/17 02:40:43;;;;;;;100.32;30.98;;;;;;;;;;6215836;23;20100;-74
2022/01/17 02:43:09;;;;;;;95.53;31.00;;;;;;;;;;6214993;23;20063;-74
2022/01/17 02:48:05;;;;;;;82.50;26.63;;;;;;;;;;6214819;23;20009;-74
2022/01/17 02:50:31;;;;;;;78.63;26.02;;;;;;;;;;6213972;23;20485;-74
2022/01/17 02:53:00;;;;;;;75.95;25.33;;;;;;;;;;6214814;23;20009;-74
2022/01/17 02:55:25;;;;;;;71.47;23.90;;;;;;;;;;6188574;23;20008;-75
2022/01/17 02:57:51;;;;;;;76.32;22.05;;;;;;;;;;6219865;23;20032;-74
2022/01/17 03:00:16;;;;;;;60.42;19.92;;;;;;;;;;6221225;23;20055;-73
2022/01/17 03:02:46;;;;;;;57.30;19.63;;;;;;;;;;6215002;23;20030;-74
2022/01/17 03:05:12;;;;;;;58.58;20.02;;;;;;;;;;6214900;23;20012;-74
2022/01/17 03:07:37;;;;;;;55.47;19.33;;;;;;;;;;6214880;23;20001;-73
2022/01/17 03:10:06;;;;;;;50.53;18.15;;;;;;;;;;6214801;23;20000;-74
2022/01/17 03:12:31;;;;;;;51.50;18.58;;;;;;;;;;6214865;23;20403;-74
2022/01/17 03:14:57;;;;;;;59.75;19.95;;;;;;;;;;6188949;23;20146;-74
2022/01/17 03:17:23;;;;;;;65.68;21.58;;;;;;;;;;6214491;23;20054;-75
2022/01/17 03:19:49;;;;;;;69.50;22.33;;;;;;;;;;6201471;23;20051;-74
2022/01/17 03:22:14;;;;;;;59.22;21.30;;;;;;;;;;6163762;23;20001;-75
2022/01/17 03:24:40;;;;;;;55.00;19.63;;;;;;;;;;6229335;23;20008;-74
2022/01/17 03:27:05;;;;;;;65.38;20.05;;;;;;;;;;6190910;23;20009;-74
2022/01/17 03:29:31;;;;;;;44.00;15.80;;;;;;;;;;6213514;23;20004;-74
2022/01/17 03:31:56;;;;;;;37.90;14.32;;;;;;;;;;6214602;23;20001;-74
2022/01/17 03:34:22;;;;;;;41.25;13.40;;;;;;;;;;6214800;23;20116;-75
2022/01/17 03:36:48;;;;;;;38.80;13.20;;;;;;;;;;6163136;23;20038;-74
2022/01/17 03:39:13;;;;;;;34.78;12.98;;;;;;;;;;6221104;23;20024;-73
2022/01/17 03:41:40;;;;;;;38.63;12.70;;;;;;;;;;6216755;23;20027;-74
2022/01/17 03:44:06;;;;;;;40.80;14.77;;;;;;;;;;6214466;23;20387;-74
2022/01/17 03:46:32;;;;;;;47.13;15.85;;;;;;;;;;6214039;23;20083;-74
2022/01/17 03:48:57;;;;;;;46.35;14.60;;;;;;;;;;6163140;23;20332;-75
2022/01/17 03:51:22;;;;;;;39.45;13.68;;;;;;;;;;6214475;23;20009;-74
2022/01/17 03:53:48;;;;;;;42.50;15.30;;;;;;;;;;6214355;23;20343;-74
2022/01/17 03:56:13;;;;;;;36.30;13.43;;;;;;;;;;6214507;23;20001;-74
2022/01/17 03:58:39;;;;;;;40.25;14.70;;;;;;;;;;6187830;23;20004;-75
2022/01/17 04:01:04;;;;;;;32.25;11.85;;;;;;;;;;6222895;23;20079;-74
2022/01/17 04:03:30;;;;;;;36.15;13.80;;;;;;;;;;6163146;23;20386;-75
2022/01/17 04:05:56;;;;;;;36.65;11.93;;;;;;;;;;6187987;23;20005;-74
2022/01/17 04:08:21;;;;;;;34.35;13.20;;;;;;;;;;6214516;23;20005;-74
2022/01/17 04:10:47;;;;;;;40.90;13.35;;;;;;;;;;6187748;23;20418;-76
2022/01/17 04:13:12;;;;;;;32.65;12.40;;;;;;;;;;6187864;23;20011;-75
2022/01/17 04:15:38;;;;;;;33.50;13.55;;;;;;;;;;6213835;23;20075;-74
2022/01/17 04:18:04;;;;;;;40.25;14.43;;;;;;;;;;6214838;23;20047;-75
2022/01/17 04:20:30;;;;;;;38.97;13.57;;;;;;;;;;6223726;23;20008;-74
2022/01/17 04:23:01;;;;;;;41.15;12.73;;;;;;;;;;6188147;23;20352;-74
2022/01/17 04:25:31;;;;;;;40.88;14.10;;;;;;;;;;6212753;23;20462;-75
2022/01/17 04:27:57;;;;;;;42.80;14.43;;;;;;;;;;6214038;23;20075;-75
2022/01/17 04:30:23;;;;;;;50.92;17.27;;;;;;;;;;6213744;23;20011;-75
2022/01/17 04:32:49;;;;;;;59.13;17.45;;;;;;;;;;6214688;23;20004;-74
2022/01/17 04:35:20;;;;;;;53.88;17.60;;;;;;;;;;6187694;23;20009;-75
2022/01/17 04:37:46;;;;;;;59.25;19.15;;;;;;;;;;6214383;23;20072;-74
2022/01/17 04:40:12;;;;;;;66.45;20.55;;;;;;;;;;6219687;23;20004;-77
2022/01/17 04:42:44;;;;;;;49.28;18.23;;;;;;;;;;6193878;23;20054;-75
2022/01/17 04:45:15;;;;;;;49.80;17.88;;;;;;;;;;6213971;23;20005;-75
2022/01/17 04:47:41;;;;;;;49.80;17.48;;;;;;;;;;6214034;23;20329;-75
2022/01/17 04:50:12;;;;;;;52.13;18.60;;;;;;;;;;6214581;23;20065;-75
2022/01/17 04:52:38;;;;;;;54.90;17.20;;;;;;;;;;6213820;23;20009;-74
2022/01/17 04:55:05;;;;;;;44.90;16.38;;;;;;;;;;6214316;23;20008;-75
2022/01/17 04:57:30;;;;;;;46.15;16.10;;;;;;;;;;6187185;23;20016;-75
2022/01/17 04:59:56;;;;;;;44.00;16.70;;;;;;;;;;6213874;23;20008;-74
2022/01/17 05:02:21;;;;;;;45.25;16.42;;;;;;;;;;6168880;23;20020;-74
2022/01/17 05:04:47;;;;;;;53.65;17.58;;;;;;;;;;6215093;23;20444;-74
2022/01/17 05:07:12;;;;;;;52.97;19.58;;;;;;;;;;6189467;23;20001;-74
2022/01/17 05:09:40;;;;;;;54.10;19.08;;;;;;;;;;6189551;23;20012;-75
2022/01/17 05:12:06;;;;;;;50.00;18.92;;;;;;;;;;6189270;23;20004;-75
2022/01/17 05:14:31;;;;;;;63.38;21.40;;;;;;;;;;6189802;23;20588;-75
2022/01/17 05:17:04;;;;;;;59.63;22.55;;;;;;;;;;6189666;23;20008;-74
2022/01/17 05:22:17;;;;;;;61.95;21.20;;;;;;;;;;6204345;23;20058;-75
2022/01/17 05:24:42;;;;;;;58.05;21.35;;;;;;;;;;6165250;23;20001;-75
2022/01/17 05:27:08;;;;;;;72.72;26.25;;;;;;;;;;6189268;23;20005;-77
2022/01/17 05:29:34;;;;;;;61.38;21.77;;;;;;;;;;6215869;23;20400;-76
2022/01/17 05:32:00;;;;;;;64.70;21.63;;;;;;;;;;6189176;23;20004;-76
2022/01/17 05:34:25;;;;;;;89.22;26.80;;;;;;;;;;6216377;23;20412;-75
2022/01/17 05:36:51;;;;;;;92.25;29.58;;;;;;;;;;6164301;23;20005;-75
2022/01/17 05:39:16;;;;;;;106.95;32.80;;;;;;;;;;6216257;23;20000;-80
2022/01/17 05:41:42;;;;;;;85.88;30.02;;;;;;;;;;6173808;23;20000;-79
2022/01/17 05:44:08;;;;;;;86.68;28.58;;;;;;;;;;6154093;23;20008;-78
2022/01/17 05:46:33;;;;;;;95.45;33.33;;;;;;;;;;6144917;23;20012;-78
2022/01/17 05:48:59;;;;;;;126.20;47.13;;;;;;;;;;6142872;23;20004;-79
2022/01/17 05:51:24;;;;;;;88.20;31.92;;;;;;;;;;6220499;23;20012;-78
2022/01/17 05:53:53;;;;;;;82.07;32.38;;;;;;;;;;6142207;23;20036;-78
2022/01/17 05:56:19;;;;;;;78.35;26.52;;;;;;;;;;6191948;23;20092;-79
2022/01/17 05:58:45;;;;;;;69.60;24.48;;;;;;;;;;6167719;23;20004;-79
2022/01/17 06:01:16;;;;;;;77.30;26.63;;;;;;;;;;6173000;23;20384;-80
2022/01/17 06:03:55;;;;;;;72.20;24.52;;;;;;;;;;6173873;23;20431;-80
2022/01/17 06:06:20;;;;;;;64.35;23.02;;;;;;;;;;6218592;23;20072;-78
2022/01/17 06:08:49;;;;;;;73.18;25.42;;;;;;;;;;6215704;23;20024;-77
2022/01/17 06:11:17;;;;;;;75.68;24.88;;;;;;;;;;6220750;23;20004;-79
2022/01/17 06:13:44;;;;;;;75.63;26.05;;;;;;;;;;6193218;23;20071;-79
2022/01/17 06:16:13;;;;;;;78.07;27.63;;;;;;;;;;6189452;23;20008;-78
2022/01/17 06:19:09;;;;;;;77.30;27.15;;;;;;;;;;6215159;23;20005;-80
2022/01/17 06:21:34;;;;;;;78.32;26.45;;;;;;;;;;6163282;23;20083;-79
2022/01/17 06:24:02;;;;;;;90.55;31.70;;;;;;;;;;6169507;23;20598;-79
2022/01/17 06:26:28;;;;;;;91.40;30.25;;;;;;;;;;6192772;23;20439;-74
2022/01/17 06:28:54;;;;;;;91.63;33.72;;;;;;;;;;6188064;23;20020;-76
2022/01/17 06:31:19;;;;;;;104.82;32.25;;;;;;;;;;6218726;23;20000;-76
2022/01/17 06:33:45;;;;;;;76.25;28.55;;;;;;;;;;6159188;23;20155;-74
2022/01/17 06:36:11;;;;;;;96.90;32.97;;;;;;;;;;6160646;23;20009;-74
2022/01/17 06:38:36;;;;;;;90.78;31.42;;;;;;;;;;6187291;23;20004;-75
2022/01/17 06:41:02;;;;;;;90.82;30.55;;;;;;;;;;6187412;23;20001;-76
2022/01/17 06:43:28;;;;;;;88.97;31.50;;;;;;;;;;6183293;23;20008;-75
2022/01/17 06:45:57;;;;;;;93.30;31.27;;;;;;;;;;6186796;23;20581;-76
2022/01/17 06:48:22;;;;;;;101.13;31.60;;;;;;;;;;6214671;23;20007;-76
2022/01/17 06:50:48;;;;;;;81.57;30.17;;;;;;;;;;6214688;23;20008;-74
2022/01/17 06:53:13;;;;;;;90.35;30.70;;;;;;;;;;6214803;23;20087;-76
2022/01/17 06:55:40;;;;;;;77.00;27.67;;;;;;;;;;6213750;23;20016;-74
2022/01/17 06:58:09;;;;;;;71.80;23.92;;;;;;;;;;6212540;23;20005;-78
2022/01/17 07:00:55;;;;;;;85.20;31.08;;;;;;;;;;6188892;23;20034;-77
2022/01/17 07:03:21;;;;;;;97.97;33.33;;;;;;;;;;6222914;23;20005;-78
2022/01/17 07:05:55;;;;;;;87.60;31.45;;;;;;;;;;6192987;23;20001;-78
2022/01/17 07:08:20;;;;;;;77.60;27.95;;;;;;;;;;6215425;23;20076;-76
2022/01/17 07:10:46;;;;;;;92.10;29.63;;;;;;;;;;6215351;23;20008;-76
2022/01/17 07:13:15;;;;;;;90.65;32.08;;;;;;;;;;6214659;23;20008;-75
2022/01/17 07:15:53;;;;;;;77.53;27.98;;;;;;;;;;6214720;23;20012;-75
2022/01/17 07:18:19;;;;;;;75.57;28.15;;;;;;;;;;6215304;23;20059;-75
2022/01/17 07:20:45;;;;;;;77.78;26.95;;;;;;;;;;6213969;23;20024;-75
2022/01/17 07:23:10;;;;;;;79.63;27.23;;;;;;;;;;6220375;23;20459;-76
2022/01/17 07:25:38;;;;;;;60.42;21.55;;;;;;;;;;6218198;23;20355;-75
2022/01/17 07:28:06;;;;;;;68.97;22.45;;;;;;;;;;6215051;23;20004;-74
2022/01/17 07:30:37;;;;;;;80.25;28.42;;;;;;;;;;6211945;23;20452;-74
2022/01/17 07:33:03;;;;;;;71.30;21.58;;;;;;;;;;6212201;23;20012;-75
2022/01/17 07:35:30;;;;;;;94.90;27.88;;;;;;;;;;6211319;23;20018;-76
2022/01/17 07:37:55;;;;;;;59.03;21.52;;;;;;;;;;6210813;23;20058;-75
2022/01/17 07:40:24;;;;;;;63.00;21.35;;;;;;;;;;6210732;23;20386;-74
2022/01/17 07:42:50;;;;;;;69.72;23.00;;;;;;;;;;6210455;23;20031;-73
2022/01/17 07:45:18;;;;;;;70.15;24.08;;;;;;;;;;6214755;23;20005;-73
2022/01/17 07:47:56;;;;;;;59.40;21.58;;;;;;;;;;6210644;23;20074;-74
2022/01/17 07:50:27;;;;;;;61.33;22.67;;;;;;;;;;6213271;23;20312;-75
2022/01/17 07:53:06;;;;;;;56.60;20.15;;;;;;;;;;6214510;23;20276;-76
2022/01/17 07:55:31;;;;;;;60.42;21.63;;;;;;;;;;6191045;23;20008;-76
2022/01/17 07:57:57;;;;;;;53.25;19.42;;;;;;;;;;6213460;23;20091;-78
2022/01/17 08:00:25;;;;;;;51.25;18.90;;;;;;;;;;6185602;23;20432;-76
2022/01/17 08:02:53;;;;;;;54.00;19.30;;;;;;;;;;6214863;23;20073;-77
2022/01/17 08:05:19;;;;;;;62.33;20.42;;;;;;;;;;6188594;23;20015;-80
2022/01/17 08:07:44;;;;;;;46.38;16.88;;;;;;;;;;6213467;23;20005;-78
2022/01/17 08:10:12;;;;;;;45.40;18.38;;;;;;;;;;6135379;23;20032;-77
2022/01/17 08:12:42;;;;;;;45.53;17.17;;;;;;;;;;6159580;23;20012;-77
2022/01/17 08:15:09;;;;;;;54.22;20.52;;;;;;;;;;6212479;23;20513;-77
2022/01/17 08:17:34;;;;;;;59.13;21.98;;;;;;;;;;6186896;23;20032;-77
2022/01/17 08:20:00;;;;;;;59.30;22.85;;;;;;;;;;6189081;23;20079;-76
2022/01/17 08:22:26;;;;;;;48.42;19.17;;;;;;;;;;6191261;23;20394;-77
2022/01/17 08:24:51;;;;;;;39.03;14.82;;;;;;;;;;6169977;23;20079;-77
2022/01/17 08:27:26;;;;;;;50.70;20.00;;;;;;;;;;6146746;23;20011;-77
2022/01/17 08:29:53;;;;;;;53.85;18.65;;;;;;;;;;6194777;23;20024;-80
2022/01/17 08:32:19;;;;;;;45.58;16.08;;;;;;;;;;6189936;23;20494;-80
2022/01/17 08:34:45;;;;;;;51.75;19.05;;;;;;;;;;6141261;23;20009;-79
2022/01/17 08:37:11;;;;;;;55.95;19.80;;;;;;;;;;6215060;23;20004;-80
2022/01/17 08:39:36;;;;;;;51.97;18.67;;;;;;;;;;6186618;23;20000;-80
2022/01/17 08:42:10;;;;;;;49.30;17.48;;;;;;;;;;6160827;23;20119;-81
2022/01/17 08:44:37;;;;;;;49.85;17.90;;;;;;;;;;6171469;23;20001;-77
2022/01/17 08:47:03;;;;;;;47.92;17.20;;;;;;;;;;6189603;23;20009;-78
2022/01/17 08:49:29;;;;;;;50.30;19.33;;;;;;;;;;6211048;23;20298;-78
2022/01/17 08:51:54;;;;;;;49.95;18.58;;;;;;;;;;6191023;23;20393;-79
2022/01/17 08:54:20;;;;;;;55.92;20.15;;;;;;;;;;6208803;23;20412;-78
2022/01/17 08:56:46;;;;;;;67.30;24.00;;;;;;;;;;6208362;23;20352;-78
2022/01/17 08:59:11;;;;;;;65.40;24.05;;;;;;;;;;6206839;23;20007;-76
2022/01/17 09:01:43;;;;;;;65.88;23.00;;;;;;;;;;6211172;23;20018;-78
2022/01/17 09:04:09;;;;;;;67.78;24.73;;;;;;;;;;6212578;23;20008;-78
2022/01/17 09:06:34;;;;;;;67.43;22.60;;;;;;;;;;6210597;23;20068;-78
2022/01/17 09:09:00;;;;;;;63.72;21.75;;;;;;;;;;6212163;23;20074;-78
2022/01/17 09:11:27;;;;;;;51.42;18.88;;;;;;;;;;6212474;23;20554;-78
2022/01/17 09:13:53;;;;;;;67.43;22.52;;;;;;;;;;6214127;23;20050;-80
2022/01/17 09:16:19;;;;;;;73.45;22.45;;;;;;;;;;6238289;23;20016;-76
2022/01/17 09:18:44;;;;;;;50.55;17.73;;;;;;;;;;6187749;23;20403;-77
2022/01/17 09:21:10;;;;;;;53.63;18.25;;;;;;;;;;6188272;23;20237;-79
2022/01/17 09:23:37;;;;;;;55.13;19.30;;;;;;;;;;6220845;23;19997;-77
2022/01/17 09:26:03;;;;;;;58.47;20.70;;;;;;;;;;6214383;23;20020;-77
2022/01/17 09:28:29;;;;;;;61.78;21.23;;;;;;;;;;6190731;23;20019;-77
2022/01/17 09:30:54;;;;;;;57.58;20.27;;;;;;;;;;6193006;23;20000;-80
2022/01/17 09:33:20;;;;;;;52.45;20.20;;;;;;;;;;6213758;23;20332;-77
2022/01/17 09:35:46;;;;;;;48.40;18.67;;;;;;;;;;6213184;23;20063;-76
2022/01/17 09:38:19;;;;;;;51.03;19.08;;;;;;;;;;6212314;23;20001;-77
2022/01/17 09:40:45;;;;;;;54.53;20.90;;;;;;;;;;6219698;23;20005;-78
2022/01/17 09:43:11;;;;;;;51.00;20.92;;;;;;;;;;6194181;23;20008;-78
2022/01/17 09:45:44;;;;;;;54.60;21.15;;;;;;;;;;6214895;23;20091;-80
2022/01/17 09:48:19;;;;;;;50.30;21.02;;;;;;;;;;6210449;23;20027;-79
2022/01/17 09:51:01;;;;;;;58.42;20.38;;;;;;;;;;6213037;23;20004;-79
2022/01/17 09:53:28;;;;;;;52.50;19.83;;;;;;;;;;6187506;23;20008;-78
2022/01/17 09:56:02;;;;;;;50.53;19.75;;;;;;;;;;6189236;23;20352;-79
2022/01/17 09:58:28;;;;;;;47.85;18.88;;;;;;;;;;6214810;23;20166;-78
2022/01/17 10:00:59;;;;;;;47.47;18.55;;;;;;;;;;6214192;23;20424;-78
2022/01/17 10:03:24;;;;;;;44.05;18.00;;;;;;;;;;6213718;23;20001;-74
2022/01/17 10:05:50;;;;;;;51.47;18.33;;;;;;;;;;6216585;23;20062;-77
2022/01/17 10:08:17;;;;;;;55.83;21.00;;;;;;;;;;6190258;23;20084;-77
2022/01/17 10:10:50;;;;;;;58.78;24.73;;;;;;;;;;6238009;23;20428;-77
2022/01/17 10:13:31;;;;;;;53.25;17.38;;;;;;;;;;6214888;23;20004;-77
2022/01/17 10:16:00;;;;;;;51.13;19.48;;;;;;;;;;6166202;23;20016;-76
2022/01/17 10:18:49;;;;;;;59.63;21.40;;;;;;;;;;6213535;23;19997;-78
2022/01/17 10:21:42;;;;;;;39.38;16.08;;;;;;;;;;6216313;23;20020;-77
2022/01/17 10:25:02;;;;;;;34.88;14.98;;;;;;;;;;6222229;23;20012;-80
2022/01/17 10:28:17;;;;;;;42.87;18.47;;;;;;;;;;6201402;23;20011;-81
2022/01/17 10:30:47;;;;;;;39.53;15.35;;;;;;;;;;6211797;23;20302;-78
2022/01/17 10:36:48;;;;;;;46.80;15.73;;;;;;;;;;6221920;23;20016;-78
2022/01/17 10:39:14;;;;;;;40.63;15.10;;;;;;;;;;6195794;23;20073;-79
2022/01/17 10:41:40;;;;;;;40.42;15.48;;;;;;;;;;6198166;23;20020;-81
2022/01/17 10:44:06;;;;;;;42.53;14.25;;;;;;;;;;6219197;23;20009;-80
2022/01/17 10:46:31;;;;;;;35.67;14.30;;;;;;;;;;6192695;23;20004;-79
2022/01/17 10:48:58;;;;;;;33.47;12.32;;;;;;;;;;6218628;23;20009;-78
2022/01/17 10:51:53;;;;;;;48.55;19.15;;;;;;;;;;6188981;23;20001;-77
2022/01/17 10:54:19;;;;;;;55.30;17.48;;;;;;;;;;6195111;23;20009;-76
2022/01/17 10:56:49;;;;;;;43.35;15.75;;;;;;;;;;6164025;23;20012;-77
2022/01/17 10:59:30;;;;;;;38.83;15.15;;;;;;;;;;6218634;23;20028;-79
2022/01/17 11:01:59;;;;;;;35.53;12.48;;;;;;;;;;6196786;23;20004;-77
2022/01/17 11:04:36;;;;;;;36.55;12.57;;;;;;;;;;6197564;23;20131;-78
2022/01/17 11:12:36;;;;;;;35.92;13.25;;;;;;;;;;6252055;22;20020;-79
2022/01/17 11:15:05;;;;;;;31.77;12.48;;;;;;;;;;6249011;22;20012;-77
2022/01/17 11:17:35;;;;;;;43.05;13.32;;;;;;;;;;6253856;22;20030;-76
2022/01/17 11:20:27;;;;;;;29.20;10.57;;;;;;;;;;6229802;22;20010;-79
2022/01/17 11:22:55;;;;;;;30.58;10.88;;;;;;;;;;6264945;22;20061;-79
2022/01/17 11:25:25;;;;;;;26.35;10.85;;;;;;;;;;6258978;22;20077;-77
2022/01/17 11:27:51;;;;;;;32.00;12.30;;;;;;;;;;6282389;22;19996;-80
2022/01/17 11:30:17;;;;;;;26.05;10.23;;;;;;;;;;6280205;22;20000;-78
2022/01/17 11:32:47;;;;;;;28.30;10.75;;;;;;;;;;6229211;22;20323;-78
2022/01/17 11:35:13;;;;;;;41.33;11.70;;;;;;;;;;6280979;22;20011;-78
2022/01/17 11:37:42;;;;;;;26.70;9.43;;;;;;;;;;6231524;22;20046;-80
2022/01/17 11:40:08;;;;;;;34.97;11.20;;;;;;;;;;6254755;22;20003;-79
2022/01/17 11:42:44;;;;;;;32.33;10.70;;;;;;;;;;6236922;22;20003;-81
2022/01/17 11:45:33;;;;;;;23.48;9.02;;;;;;;;;;6279051;22;20040;-79
2022/01/17 11:48:06;;;;;;;32.35;10.43;;;;;;;;;;6251451;22;20453;-78
2022/01/17 11:50:43;;;;;;;30.17;10.40;;;;;;;;;;6278828;22;20065;-78
2022/01/17 11:53:11;;;;;;;39.25;14.13;;;;;;;;;;6276257;22;20010;-81
2022/01/17 11:55:41;;;;;;;29.42;11.05;;;;;;;;;;6274689;22;20011;-80
2022/01/17 11:58:37;;;;;;;130.07;46.45;;;;;;;;;;6276316;22;20280;-80
2022/01/17 12:01:03;;;;;;;52.70;19.73;;;;;;;;;;6255127;22;19999;-79
2022/01/17 12:03:40;;;;;;;30.45;12.02;;;;;;;;;;6293858;22;20087;-79
2022/01/17 12:06:32;;;;;;;28.90;12.65;;;;;;;;;;6252869;22;20004;-78
2022/01/17 12:09:18;;;;;;;32.38;12.40;;;;;;;;;;6276348;22;20269;-80
2022/01/17 12:11:53;;;;;;;31.00;11.43;;;;;;;;;;6275073;22;20004;-80
2022/01/17 12:14:26;;;;;;;27.38;10.93;;;;;;;;;;6223475;22;20004;-79
2022/01/17 12:16:51;;;;;;;21.35;8.73;;;;;;;;;;6245924;22;20350;-80
2022/01/17 12:19:17;;;;;;;37.05;7.30;;;;;;;;;;6246072;22;19999;-80
2022/01/17 12:21:53;;;;;;;25.52;6.30;;;;;;;;;;6230325;22;19992;-79
2022/01/17 12:24:38;;;;;;;17.75;7.80;;;;;;;;;;6288520;22;20022;-78
2022/01/17 12:27:09;;;;;;;20.45;7.75;;;;;;;;;;6282823;22;20007;-81
2022/01/17 12:29:43;;;;;;;20.63;7.65;;;;;;;;;;6281439;22;19996;-79
2022/01/17 12:32:24;;;;;;;96.00;35.50;;;;;;;;;;6276889;22;20008;-77
2022/01/17 12:34:51;;;;;;;31.10;11.68;;;;;;;;;;6276794;22;20011;-77
2022/01/17 12:37:32;;;;;;;21.00;7.80;;;;;;;;;;6282223;22;20028;-81
2022/01/17 12:40:35;;;;;;;15.10;5.40;;;;;;;;;;6286647;22;20000;-79
2022/01/17 12:43:11;;;;;;;19.63;6.07;;;;;;;;;;6293358;22;20007;-81
2022/01/17 12:45:38;;;;;;;16.83;6.85;;;;;;;;;;6240735;22;20034;-79
2022/01/17 12:48:11;;;;;;;16.98;6.28;;;;;;;;;;6286103;22;20000;-78
2022/01/17 12:50:38;;;;;;;21.63;7.20;;;;;;;;;;6234267;22;20004;-78
2022/01/17 12:53:05;;;;;;;24.58;10.10;;;;;;;;;;6280532;22;20026;-79
2022/01/17 12:55:36;;;;;;;20.05;8.65;;;;;;;;;;6231759;22;20003;-79
2022/01/17 12:58:09;;;;;;;20.27;9.25;;;;;;;;;;6283232;22;20004;-83
2022/01/17 13:01:15;;;;;;;20.10;8.50;;;;;;;;;;6238630;22;20035;-79
2022/01/17 13:03:44;;;;;;;21.27;9.82;;;;;;;;;;6247852;22;20449;-78
2022/01/17 13:06:19;;;;;;;20.40;8.88;;;;;;;;;;6259938;22;20027;-78
2022/01/17 13:08:46;;;;;;;18.55;7.35;;;;;;;;;;6235818;22;20008;-79
2022/01/17 13:11:12;;;;;;;23.88;9.93;;;;;;;;;;6228617;22;20083;-80
2022/01/17 13:14:01;;;;;;;26.13;10.13;;;;;;;;;;6282271;22;20008;-79
2022/01/17 13:16:27;;;;;;;23.15;9.88;;;;;;;;;;6254581;22;20086;-78
2022/01/17 13:18:56;;;;;;;29.10;11.07;;;;;;;;;;6278111;22;20007;-76
2022/01/17 13:21:22;;;;;;;22.58;10.35;;;;;;;;;;6255970;22;20008;-80
2022/01/17 13:23:53;;;;;;;24.63;11.27;;;;;;;;;;6293397;22;20004;-81
2022/01/17 13:26:28;;;;;;;27.35;10.95;;;;;;;;;;6235648;22;20012;-79
2022/01/17 13:28:55;;;;;;;29.38;11.90;;;;;;;;;;6238238;22;20010;-80
2022/01/17 13:31:22;;;;;;;36.03;12.57;;;;;;;;;;6259646;22;20004;-81
2022/01/17 13:33:48;;;;;;;34.88;13.50;;;;;;;;;;6282131;22;20096;-79
2022/01/17 13:36:30;;;;;;;32.63;12.45;;;;;;;;;;6258190;22;20016;-78
2022/01/17 13:39:08;;;;;;;33.42;10.40;;;;;;;;;;6263344;22;19999;-81
2022/01/17 13:41:35;;;;;;;29.40;10.73;;;;;;;;;;6285949;22;20083;-79
2022/01/17 13:44:00;;;;;;;28.65;11.57;;;;;;;;;;6261535;22;20015;-79
2022/01/17 13:46:29;;;;;;;30.83;10.02;;;;;;;;;;6285574;22;20004;-81
2022/01/17 13:48:54;;;;;;;25.70;10.13;;;;;;;;;;6284074;22;20000;-80
2022/01/17 13:51:24;;;;;;;27.65;8.93;;;;;;;;;;6284579;22;20035;-79
2022/01/17 13:53:53;;;;;;;29.02;9.88;;;;;;;;;;6282589;22;20072;-80
2022/01/17 13:56:19;;;;;;;38.73;13.13;;;;;;;;;;6281790;22;20042;-80
2022/01/17 13:58:46;;;;;;;38.30;12.50;;;;;;;;;;6232358;22;20003;-79
2022/01/17 14:01:14;;;;;;;32.30;11.57;;;;;;;;;;6258500;22;19999;-80
2022/01/17 14:03:41;;;;;;;58.78;13.20;;;;;;;;;;6277486;22;20033;-82
2022/01/17 14:06:08;;;;;;;42.92;16.88;;;;;;;;;;6276002;22;20007;-83
2022/01/17 14:08:40;;;;;;;46.88;18.00;;;;;;;;;;6229551;22;20007;-82
2022/01/17 14:11:07;;;;;;;37.50;12.93;;;;;;;;;;6260461;22;20023;-82
2022/01/17 14:13:44;;;;;;;48.67;16.58;;;;;;;;;;6262714;22;20075;-82
2022/01/17 14:16:13;;;;;;;58.92;25.13;;;;;;;;;;6257298;22;20012;-82
2022/01/17 14:18:46;;;;;;;67.78;33.22;;;;;;;;;;6256936;22;20007;-81
2022/01/17 14:21:24;;;;;;;76.22;29.48;;;;;;;;;;6278493;22;20003;-80
2022/01/17 14:24:03;;;;;;;95.85;34.15;;;;;;;;;;6280109;22;20074;-79
2022/01/17 14:26:28;;;;;;;49.13;17.73;;;;;;;;;;6289381;22;20092;-80
2022/01/17 14:28:54;;;;;;;49.53;18.80;;;;;;;;;;6276209;22;20003;-79
2022/01/17 14:31:19;;;;;;;41.15;14.45;;;;;;;;;;6277611;22;19999;-80
2022/01/17 14:33:51;;;;;;;47.83;15.05;;;;;;;;;;6280666;22;20371;-78
2022/01/17 14:36:18;;;;;;;31.98;11.75;;;;;;;;;;6257922;22;20676;-78
2022/01/17 14:38:51;;;;;;;35.22;14.13;;;;;;;;;;6254024;22;20007;-78
2022/01/17 14:41:34;;;;;;;39.95;14.77;;;;;;;;;;6277911;22;20004;-79
2022/01/17 14:44:17;;;;;;;38.55;15.40;;;;;;;;;;6285191;22;20004;-80
2022/01/17 14:46:57;;;;;;;48.35;17.35;;;;;;;;;;6290679;22;20454;-78
2022/01/17 14:49:23;;;;;;;49.08;18.60;;;;;;;;;;6288836;22;20006;-81
2022/01/17 14:52:12;;;;;;;61.08;21.77;;;;;;;;;;6296993;22;20004;-81